Tiempo atmosférico en la estación meteorológica de Olvera, Cádiz (540 m.)



Fecha
DESCASC
Temp. máxima en grados centígrados (hora)
DESCASC
Temp. mínima en grados centígrados (hora)
DESCASC
Temp. media en grados centígrados
DESCASC
Racha de viento máxima en m/sg (hora)
DESCASC
Velocidad máxima media en intervalos de 10 minutos(hora)
DESCASC
Precipitaciones diarias en mm
DESCASC
Precipitaciones de 00:00 a 06:00 en mm
DESCASC
Precipitaciones de 06:00 a 12:00 en mm
DESCASC
Precipitaciones de 12:00 a 18:00 en mm
DESCASC
Precipitaciones de 18:00 a 24:00 en mm
DESCASC
25-02-2021 16.3 (13:30) 9.6 (04:10) 12.9 9.72 (21:00) 4.72 (21:00) 0 0 0 0 0
24-02-2021 16.4 (14:00) 9.8 (00:00) 13.1 18.33 (11:40) 6.11 (15:20) 0 0 0 0 0
23-02-2021 16.7 (14:00) 4.3 (05:50) 10.5 11.39 (23:50) 4.44 (23:59) 0 0 0 0 0
22-02-2021 13.4 (16:10) 4.2 (08:20) 8.8 8.89 (00:50) 4.44 (00:30) 0 0 0 0 0
21-02-2021 -- (--) -- (--) -- -- (--) -- (--) -- 0 -- 4.8 0
20-02-2021 20.5 (14:40) 9.6 (00:00) 15.1 10.83 (12:20) 5 (12:00) 0 0 0 0 0
19-02-2021 20.1 (15:30) 8.5 (00:00) 14.3 6.94 (18:00) 4.72 (17:50) 0 0 0 0 0
18-02-2021 17.9 (16:20) 7.8 (00:00) 12.8 5.28 (14:50) 3.33 (12:00) 0 0 0 0 0
17-02-2021 -- (--) -- (--) -- -- (--) -- (--) -- 0 -- 0 0
16-02-2021 21.9 (16:40) 10.1 (00:00) 16 9.44 (00:20) 3.89 (17:10) 0 0 0 0 0
15-02-2021 19.2 (16:00) 8.9 (00:00) 14.1 10.28 (23:20) 3.89 (23:50) 0 0 0 0 0
14-02-2021 20.9 (15:20) 9.6 (00:00) 15.3 9.44 (12:20) 4.17 (12:20) 0 0 0 0 0
13-02-2021 18.3 (16:00) 6.3 (00:00) 12.3 5.56 (16:30) 3.06 (16:30) 0 0 0 0 0
12-02-2021 16.3 (16:50) 9.5 (00:00) 12.9 8.06 (13:40) 4.44 (14:50) 2.4 0 2.2 0.2 0
11-02-2021 -- (--) -- (--) -- -- (--) -- (--) -- 0.6 0.6 0 --
10-02-2021 12.7 (14:40) 10.3 (00:00) 11.5 18.33 (08:40) 11.11 (07:30) 12.2 1.2 3.4 7 0.6
09-02-2021 -- (--) -- (--) -- -- (--) -- (--) -- 0 0.2 -- 4
08-02-2021 13.3 (15:40) 8.1 (00:00) 10.7 20.28 (07:00) 11.94 (06:20) 14.4 2 11.8 0 0.6
07-02-2021 10.1 (14:40) 6.9 (00:00) 8.5 14.44 (16:40) 8.61 (15:30) 0.4 0.2 0.2 0 0
06-02-2021 10.9 (14:50) 7.2 (00:00) 9 11.94 (03:40) 8.89 (03:50) 6.6 1.6 0.2 1.6 3.2
05-02-2021 15.6 (13:00) 8.5 (00:00) 12.1 10.56 (18:30) 6.39 (18:00) 1.6 0 0 0 1.6
04-02-2021 -- (--) -- (--) -- -- (--) -- (--) -- 0 -- 0 0
03-02-2021 15.3 (15:00) 9.5 (00:00) 12.4 3.61 (16:50) 2.22 (16:50) 0 0 0 0 0
02-02-2021 -- (--) -- (--) -- -- (--) -- (--) -- 0 0 0 --
01-02-2021 14.4 (14:50) 8.6 (00:00) 11.5 11.11 (03:20) 6.39 (04:20) 2.4 2.2 0 0.2 0
31-01-2021 13.7 (15:50) 7.9 (00:00) 10.8 12.22 (17:50) 7.5 (17:30) 0.6 0 0 0 0.6
30-01-2021 -- (--) -- (--) -- -- (--) -- (--) -- -- 0.2 1.8 0

Gráficas

Temp. máximas Temp. mínimas Temp. medias Precipitaciones Rachas de viento máximas Velocidades máximas media en intervalos de 10 minutos

Datos horarios

Fecha y hora oficial Temperatura (ºC) Velocidad del viento (km/h) Dirección del viento Racha (km/h) Dirección de racha Precipitación (mm) Presión (hPa) Tendencia (hPa) Humedad (%)
2021-02-28 23:00:00 10.7 3 Este 18 Este 0 -- -- 73
2021-02-28 22:00:00 10.9 5 Sudeste 31 Sudeste 0 -- -- 73
2021-02-28 21:00:00 11.3 9 Sudeste 29 Este 0 -- -- 70
2021-02-28 20:00:00 11.4 9 Sudeste 28 Este 0 -- -- 72
2021-02-28 19:00:00 11.9 4 Sudeste 29 Sudeste 0 -- -- 70
2021-02-28 18:00:00 12.7 10 Sudeste 31 Sudeste 0 -- -- 68
2021-02-28 17:00:00 13.7 8 Sudeste 29 Este 0 -- -- 63
2021-02-28 16:00:00 13.3 8 Sudeste 29 Este 0 -- -- 63
2021-02-28 15:00:00 13.7 10 Sudeste 36 Sudeste 0 -- -- 64
2021-02-28 14:00:00 13.3 7 Sudeste 28 Este 0 -- -- 67
2021-02-28 13:00:00 13 10 Sudeste 37 Sudeste 0 -- -- 65
2021-02-28 12:00:00 13.3 16 Sudeste 40 Sudeste 0 -- -- 65
2021-02-28 11:00:00 13.3 15 Sudeste 35 Este 0 -- -- 65
2021-02-28 10:00:00 12.1 13 Sudeste 28 Este 0 -- -- 71
2021-02-28 09:00:00 10.7 9 Sudeste 43 Sudeste 0 -- -- 76
2021-02-28 08:00:00 9.9 14 Sudeste 40 Sudeste 0 -- -- 78
2021-02-28 07:00:00 9.8 14 Sudeste 37 Sudeste 0 -- -- 81
2021-02-28 06:00:00 10 11 Sudeste 30 Este 0 -- -- 78
2021-02-28 05:00:00 9.3 5 Sudeste 18 Este 0 -- -- 78
2021-02-28 04:00:00 9.1 4 Sur 21 Este 0 -- -- 75
2021-02-28 03:00:00 9.3 5 Sudeste 18 Sur 0 -- -- 78
2021-02-28 02:00:00 9.4 3 Sur 28 Este 0 -- -- 76
2021-02-28 01:00:00 9.7 3 Sur 23 Este 0 -- -- 76
2021-02-28 00:00:00 9.3 3 Sudeste 11 Este 0 -- -- 77
2021-02-27 23:00:00 9.9 3 Sudeste 26 Sudeste 0 -- -- 76
2021-02-27 22:00:00 10.2 7 Sudeste 16 Sudeste 0 -- -- 75
2021-02-27 21:00:00 10.4 5 Sudeste 19 Este 0 -- -- 74
2021-02-27 20:00:00 11 4 Este 26 Sudeste 0 -- -- 71
2021-02-27 19:00:00 12 11 Sudeste 25 Sudeste 0 -- -- 67
2021-02-27 18:00:00 13.2 11 Sudeste 28 Sudeste 0 -- -- 62
2021-02-27 17:00:00 14.8 7 Sudeste 19 Este 0 -- -- 60
2021-02-27 16:00:00 14.8 7 Sudeste 21 Sudeste 0 -- -- 60
2021-02-27 15:00:00 15.5 3 Sudeste 13 Este 0 -- -- 57
2021-02-27 14:00:00 16.1 3 Sur 16 Sudeste 0 -- -- 56
2021-02-27 13:00:00 15.2 4 Nordeste 14 Sudoeste 0 -- -- 59
2021-02-27 12:00:00 13.9 4 Sur 10 Sudoeste 0 -- -- 58
2021-02-27 11:00:00 12.5 2 Sur 12 Sudeste 0 -- -- 67
2021-02-27 10:00:00 10.9 3 Sudeste 12 Sudeste 0 -- -- 73
2021-02-27 09:00:00 9.8 6 Este 10 Sudeste 0 -- -- 76
2021-02-27 08:00:00 9.2 7 Este 11 Este 0 -- -- 75
2021-02-27 07:00:00 8.8 4 Nordeste 8 Nordeste 0 -- -- 76
2021-02-27 06:00:00 9 3 Sudeste 10 Este 0 -- -- 75
2021-02-27 05:00:00 8.9 0 Calma 9 Este 0 -- -- 76
2021-02-27 04:00:00 8.9 0 Calma 9 Este 0 -- -- 76
2021-02-27 03:00:00 9.3 3 Este 12 Este 0 -- -- 78
2021-02-27 02:00:00 9.3 3 Sur 8 Sudoeste 0 -- -- 76
2021-02-27 01:00:00 9.5 0 Calma 8 Sudeste 0 -- -- 75
2021-02-27 00:00:00 9.7 0 Calma 13 Sudeste 0 -- -- 75
2021-02-26 23:00:00 -- -- -- -- -- -- -- -- --
2021-02-26 22:00:00 10.7 0 Calma 10 Este 0 -- -- 72
2021-02-26 21:00:00 11 3 Este 20 Sudeste 0 -- -- 69
2021-02-26 20:00:00 11.5 7 Este 21 Este 0 -- -- 69
2021-02-26 19:00:00 12.8 12 Este 22 Sudeste 0 -- -- 63
2021-02-26 18:00:00 13.8 9 Sudeste 18 Sudeste 0 -- -- 62
2021-02-26 17:00:00 14.5 8 Sudeste 22 Sudeste 0 -- -- 61
2021-02-26 16:00:00 14.7 9 Sudeste 25 Sudeste 0 -- -- 60
2021-02-26 15:00:00 14.7 8 Sudeste 20 Sudeste 0 -- -- 62
2021-02-26 14:00:00 14.8 4 Sudeste 17 Sudoeste 0 -- -- 60
2021-02-26 13:00:00 14.8 5 Sur 19 Sudoeste 0 -- -- 62
2021-02-26 12:00:00 14.4 6 Sudeste 19 Este 0 -- -- 62
2021-02-26 11:00:00 13.5 4 Sur 22 Sudeste 0 -- -- 66
2021-02-26 10:00:00 12.5 7 Sudoeste 22 Este 0 -- -- 72
2021-02-26 09:00:00 11.7 6 Sudoeste 14 Sudoeste 0 -- -- 73
2021-02-26 08:00:00 11 5 Nordeste 9 Nordeste 0 -- -- 71
2021-02-26 07:00:00 11 0 Calma 6 Sudoeste 0 -- -- 70
2021-02-26 06:00:00 11.5 0 Calma 6 Este 0 -- -- 67
2021-02-26 05:00:00 11.4 3 Nordeste 8 Este 0 -- -- 69
2021-02-26 04:00:00 11.3 0 Calma 11 Sur 0 -- -- 70
2021-02-26 03:00:00 11.1 4 Oeste 9 Sudoeste 0 -- -- 70
2021-02-26 02:00:00 11.1 0 Calma 17 Sudoeste 0 -- -- 70
2021-02-26 01:00:00 11.1 4 Sur 17 Sudoeste 0 -- -- 68
2021-02-26 00:00:00 11 0 Calma 5 Sudoeste 0 -- -- 69
2021-02-25 23:00:00 11.3 3 Sudoeste 15 Sudeste 0 -- -- 69
2021-02-25 22:00:00 11.7 3 Sur 30 Este 0 -- -- 67
2021-02-25 21:00:00 12.1 17 Sudeste 35 Sudeste 0 -- -- 67
2021-02-25 20:00:00 12 2 Sur 17 Sudeste 0 -- -- 68
2021-02-25 19:00:00 12.9 5 Sudeste 24 Este 0 -- -- 68
2021-02-25 18:00:00 14.5 8 Sudeste 24 Sudeste 0 -- -- 67
2021-02-25 17:00:00 15.8 8 Sudeste 26 Este 0 -- -- 63
2021-02-25 16:00:00 15.5 8 Sudeste 23 Sudeste 0 -- -- 66
2021-02-25 15:00:00 16.2 5 Sur 19 Sudoeste 0 -- -- 62
2021-02-25 14:00:00 16.2 5 Sudeste 27 Sudeste 0 -- -- 64
2021-02-25 13:00:00 16.2 7 Sur 27 Sudeste 0 -- -- 61
2021-02-25 12:00:00 15.1 9 Sur 26 Sudeste 0 -- -- 64
2021-02-25 11:00:00 14.2 6 Sur 22 Sur 0 -- -- 67
2021-02-25 10:00:00 12.9 8 Sudeste 19 Sudeste 0 -- -- 72
2021-02-25 09:00:00 10.9 6 Sudeste 13 Este 0 -- -- 79
2021-02-25 08:00:00 10.1 4 Este 14 Este 0 -- -- 81
2021-02-25 07:00:00 10.3 6 Este 17 Este 0 -- -- 80
2021-02-25 06:00:00 -- 4 Sudeste 17 Sudoeste 0 -- -- --
2021-02-25 05:00:00 10 3 Sudeste 14 Este 0 -- -- 79
2021-02-25 04:00:00 9.8 2 Sur 10 Sudeste 0 -- -- 77
2021-02-25 03:00:00 10.8 6 Sudeste 24 Sudoeste 0 -- -- 71
2021-02-25 02:00:00 10.8 6 Sur 24 Sudeste 0 -- -- 70
2021-02-25 01:00:00 10.7 8 Sudeste 30 Sudeste 0 -- -- 69
2021-02-25 00:00:00 10.9 8 Sudeste 27 Este 0 -- -- 67
2021-02-24 23:00:00 11.1 7 Sur 22 Sur 0 -- -- 69
2021-02-24 22:00:00 10.6 4 Sur 14 Este 0 -- -- 68
2021-02-24 21:00:00 11.1 6 Sudeste 19 Este 0 -- -- 72
2021-02-24 20:00:00 11.6 6 Sudeste 28 Este 0 -- -- 71
2021-02-24 19:00:00 12.3 8 Sudeste 44 Este 0 -- -- 69
2021-02-24 18:00:00 14.3 9 Sudeste 31 Este 0 -- -- 63
2021-02-24 17:00:00 14.8 9 Sudeste 46 Sudeste 0 -- -- 62
2021-02-24 16:00:00 14.8 21 Sudeste 47 Sudeste 0 -- -- 63
2021-02-24 15:00:00 15.8 14 Sudeste 43 Este 0 -- -- 60
2021-02-24 14:00:00 16.4 7 Sudeste 48 Sudeste 0 -- -- 58
2021-02-24 13:00:00 14.7 19 Sudeste 57 Este 0 -- -- 62
2021-02-24 12:00:00 14.5 16 Sudeste 66 Sur 0 -- -- 62
2021-02-24 11:00:00 14.6 11 Sudeste 39 Sudeste 0 -- -- 62
2021-02-24 10:00:00 13.1 7 Sur 18 Sur 0 -- -- 65
2021-02-24 09:00:00 10.8 0 Calma 16 Sudeste 0 -- -- 72
2021-02-24 08:00:00 10.2 3 Este 9 Este 0 -- -- 74
2021-02-24 07:00:00 10.8 4 Sudeste 25 Este 0 -- -- 73
2021-02-24 06:00:00 11 8 Sudeste 30 Sudeste 0 -- -- 73
2021-02-24 05:00:00 10.9 16 Sudeste 37 Este 0 -- -- 76
2021-02-24 04:00:00 10.8 10 Sudeste 36 Este 0 -- -- 74
2021-02-24 03:00:00 10.7 15 Sudeste 44 Sudeste 0 -- -- 75
2021-02-24 02:00:00 10.6 21 Sudeste 48 Este 0 -- -- 75
2021-02-24 01:00:00 10.3 20 Sudeste 46 Sudeste 0 -- -- 73
2021-02-24 00:00:00 9.8 16 Sudeste 41 Sudeste 0 -- -- 71
2021-02-23 23:00:00 9.9 13 Sudeste 34 Sudeste 0 -- -- 66
2021-02-23 22:00:00 9.6 9 Sudeste 26 Sudeste 0 -- -- 72
2021-02-23 21:00:00 9.8 11 Sudeste 30 Sudeste 0 -- -- 73
2021-02-23 20:00:00 10.1 4 Sudeste 24 Sudeste 0 -- -- 68
2021-02-23 19:00:00 12.2 6 Sudeste 27 Sudeste 0 -- -- 58
2021-02-23 18:00:00 13.7 14 Sudeste 31 Sudeste 0 -- -- 54
2021-02-23 17:00:00 15.5 8 Sudeste 30 Sudeste 0 -- -- 47
2021-02-23 16:00:00 15.9 13 Sudeste 28 Sudeste 0 -- -- 43
2021-02-23 15:00:00 16.5 8 Sudeste 27 Este 0 -- -- 44
2021-02-23 14:00:00 16.7 6 Sur 17 Sudoeste 0 -- -- 43
2021-02-23 13:00:00 15.4 6 Sur 18 Sudoeste 0 -- -- 42
2021-02-23 12:00:00 13.8 5 Este 18 Este 0 -- -- 52
2021-02-23 11:00:00 12.1 3 Noroeste 10 Este 0 -- -- 63
2021-02-23 10:00:00 -- 2 Sudeste 12 Este 0 -- -- --
2021-02-23 09:00:00 6 6 Este 11 Este 0 -- -- 94
2021-02-23 08:00:00 4.7 6 Este 13 Este 0 -- -- 94
2021-02-23 07:00:00 5 6 Este 14 Este 0 -- -- 93
2021-02-23 06:00:00 4.4 8 Este 15 Este 0 -- -- 93
2021-02-23 05:00:00 4.6 4 Este 11 Este 0 -- -- 93
2021-02-23 04:00:00 5.1 6 Este 11 Este 0 -- -- 93
2021-02-23 03:00:00 5.6 4 Este 9 Este 0 -- -- 92
2021-02-23 02:00:00 5.6 8 Este 13 Este 0 -- -- 91
2021-02-23 01:00:00 6 3 Este 10 Este 0 -- -- 88
2021-02-23 00:00:00 6.9 4 Este 7 Este 0 -- -- 87
2021-02-22 23:00:00 7.1 5 Este 8 Este 0 -- -- 84
2021-02-22 22:00:00 7.8 4 Este 7 Este 0 -- -- 80
2021-02-22 21:00:00 8.5 5 Este 9 Este 0 -- -- 77
2021-02-22 20:00:00 9.2 4 Oeste 14 Oeste 0 -- -- 73
2021-02-22 19:00:00 11.1 8 Oeste 15 Oeste 0 -- -- 64
2021-02-22 18:00:00 12.3 8 Noroeste 27 Oeste 0 -- -- 61
2021-02-22 17:00:00 12.4 7 Oeste 25 Oeste 0 -- -- 57
2021-02-22 16:00:00 13 12 Noroeste 25 Oeste 0 -- -- 60
2021-02-22 15:00:00 12.3 9 Noroeste 26 Oeste 0 -- -- 61
2021-02-22 14:00:00 11.3 14 Oeste 26 Oeste 0 -- -- 60
2021-02-22 13:00:00 11.8 12 Oeste 21 Oeste 0 -- -- 65
2021-02-22 12:00:00 10.2 9 Noroeste 16 Norte 0 -- -- 66
2021-02-22 11:00:00 9 6 Noroeste 12 Oeste 0 -- -- 73
2021-02-22 10:00:00 8 0 Calma 5 Este 0 -- -- 81
2021-02-22 09:00:00 4.5 3 Sudeste 7 Este 0 -- -- 93
2021-02-22 08:00:00 4.4 0 Calma 4 Sudoeste 0 -- -- 91
2021-02-22 07:00:00 4.4 0 Calma 3 Norte 0 -- -- 93
2021-02-22 06:00:00 4.4 0 Calma 4 Sudoeste 0 -- -- 94
2021-02-22 05:00:00 4.8 2 Oeste 6 Oeste 0 -- -- 93
2021-02-22 04:00:00 5.5 4 Oeste 10 Noroeste 0 -- -- 91
2021-02-22 03:00:00 6 3 Oeste 19 Oeste 0 -- -- 91
2021-02-22 02:00:00 6.6 8 Oeste 27 Oeste 0 -- -- 91
2021-02-22 01:00:00 7 14 Oeste 32 Oeste 0 -- -- 89
2021-02-22 00:00:00 6.9 14 Oeste 28 Oeste 0 -- -- 88
2021-02-21 23:00:00 6.9 13 Oeste 30 Oeste 0 -- -- 86
2021-02-21 22:00:00 7.7 13 Oeste 24 Oeste 0 -- -- 89
2021-02-21 21:00:00 7.3 3 Sur 16 Sudoeste 0 -- -- 91
2021-02-21 20:00:00 7.4 9 Oeste 23 Oeste 0 -- -- 86
2021-02-21 19:00:00 7.8 13 Oeste 30 Oeste 0 -- -- 90
2021-02-21 18:00:00 7.4 16 Oeste 34 Oeste 0.2 -- -- 92
2021-02-21 17:00:00 7.5 22 Oeste 35 Oeste 0.6 -- -- 92
2021-02-21 16:00:00 7.8 15 Oeste 31 Oeste 0.2 -- -- 95
2021-02-21 15:00:00 8 19 Oeste 38 Sudoeste 0 -- -- 93
2021-02-21 14:00:00 8.6 14 Sudoeste 37 Sudoeste 1.8 -- -- 94
2021-02-21 13:00:00 9 14 Sudoeste 35 Sudoeste 2 -- -- 92
2021-02-21 12:00:00 -- -- -- -- -- -- -- -- --
2021-02-21 11:00:00 11 10 Sur 38 Sudoeste 0.4 -- -- 83
2021-02-21 10:00:00 12.7 17 Sur 37 Sudoeste 0 -- -- 69
2021-02-21 09:00:00 12.7 11 Sur 34 Sur 0 -- -- 65
2021-02-21 08:00:00 11.5 5 Sur 13 Sudoeste 0 -- -- 68
2021-02-21 07:00:00 11.8 3 Sur 18 Sudeste 0 -- -- 68
2021-02-21 06:00:00 11.8 4 Sudeste 13 Sur 0 -- -- 67
2021-02-21 05:00:00 11.9 4 Sudeste 14 Este 0 -- -- 63
2021-02-21 04:00:00 11.9 4 Sur 23 Este 0 -- -- 59
2021-02-21 03:00:00 11.9 3 Sur 26 Sudeste 0 -- -- 60
2021-02-21 02:00:00 12.1 5 Sur 27 Sudeste 0 -- -- 61
2021-02-21 01:00:00 13.4 7 Sudeste 21 Sudeste 0 -- -- 53
2021-02-21 00:00:00 14.2 8 Sur 20 Sudoeste 0 -- -- 47
2021-02-20 23:00:00 12.7 6 Sur 24 Este 0 -- -- 57
2021-02-20 22:00:00 12.8 6 Sur 24 Sudeste 0 -- -- 59
2021-02-20 21:00:00 13.8 5 Sur 15 Sur 0 -- -- 55
2021-02-20 20:00:00 13.9 3 Sur 10 Sudoeste 0 -- -- 56
2021-02-20 19:00:00 15.9 0 Calma 12 Sur 0 -- -- 54
2021-02-20 18:00:00 17.3 4 Sudeste 20 Sudoeste 0 -- -- 49
2021-02-20 17:00:00 19.2 5 Sur 16 Sur 0 -- -- 45
2021-02-20 16:00:00 19.5 4 Sur 18 Sudeste 0 -- -- 46
2021-02-20 15:00:00 19.7 6 Sudeste 26 Este 0 -- -- 45
2021-02-20 14:00:00 19.1 7 Sur 23 Sudoeste 0 -- -- 44
2021-02-20 13:00:00 18.2 12 Sur 39 Sur 0 -- -- 42
2021-02-20 12:00:00 18.2 18 Sur 39 Sudoeste 0 -- -- 41
2021-02-20 11:00:00 16.6 13 Sur 30 Sur 0 -- -- 43
2021-02-20 10:00:00 13.2 4 Sur 22 Sudeste 0 -- -- 50
2021-02-20 09:00:00 11.8 5 Sur 19 Sudeste 0 -- -- 49
2021-02-20 08:00:00 11.2 3 Sur 17 Sudeste 0 -- -- 54
2021-02-20 07:00:00 11.8 4 Sur 17 Sur 0 -- -- 50
2021-02-20 06:00:00 11.7 4 Sur 22 Sudeste 0 -- -- 51
2021-02-20 05:00:00 11.9 4 Sur 12 Sur 0 -- -- 50
2021-02-20 04:00:00 10.8 3 Sur 12 Sudoeste 0 -- -- 58
2021-02-20 03:00:00 10.3 3 Sur 11 Sudeste 0 -- -- 59
2021-02-20 02:00:00 10.5 3 Sudoeste 13 Este 0 -- -- 59
2021-02-20 01:00:00 9.9 3 Sur 12 Este 0 -- -- 66
2021-02-20 00:00:00 10.8 3 Este 9 Este 0 -- -- 94
2021-02-19 23:00:00 11.4 3 Norte 18 Noroeste 0 -- -- 92
2021-02-19 22:00:00 12.3 4 Sudoeste 12 Sudoeste 0 -- -- 56
2021-02-19 21:00:00 12 2 Sur 14 Sudeste 0 -- -- 73
2021-02-19 20:00:00 12.7 5 Sudeste 9 Sudeste 0 -- -- 86
2021-02-19 19:00:00 13.7 0 Calma 17 Noroeste 0 -- -- 82
2021-02-19 18:00:00 15.5 15 Noroeste 25 Oeste 0 -- -- 77
2021-02-19 17:00:00 18.2 12 Noroeste 18 Noroeste 0 -- -- 67
2021-02-19 16:00:00 19.4 9 Oeste 21 Oeste 0 -- -- 62
2021-02-19 15:00:00 19.8 10 Noroeste 22 Oeste 0 -- -- 58
2021-02-19 14:00:00 18.5 6 Noroeste 14 Noroeste 0 -- -- 62
2021-02-19 13:00:00 17.1 4 Oeste 13 Oeste 0 -- -- 52
2021-02-19 12:00:00 14.9 8 Sudoeste 11 Sudoeste 0 -- -- 59
2021-02-19 11:00:00 14 4 Sudoeste 6 Sudoeste 0 -- -- 56
2021-02-19 10:00:00 12.4 2 Este 8 Sudeste 0 -- -- 53
2021-02-19 09:00:00 9.3 3 Este 8 Norte 0 -- -- 68
2021-02-19 08:00:00 10.6 2 Sudoeste 13 Sudeste 0 -- -- 54
2021-02-19 07:00:00 9.7 3 Sudeste 9 Este 0 -- -- 57
2021-02-19 06:00:00 9.5 0 Calma 9 Sudeste 0 -- -- 61
2021-02-19 05:00:00 8.5 4 Este 14 Sudeste 0 -- -- 69
2021-02-19 04:00:00 8.9 6 Este 13 Este 0 -- -- 73
2021-02-19 03:00:00 9.5 5 Este 17 Este 0 -- -- 76
2021-02-19 02:00:00 10.1 8 Este 13 Sudeste 0 -- -- 79
2021-02-19 01:00:00 10.6 7 Este 13 Este 0 -- -- 80
2021-02-19 00:00:00 10.1 5 Este 10 Este 0 -- -- 86
2021-02-18 23:00:00 10.7 6 Este 10 Este 0 -- -- 88
2021-02-18 22:00:00 11.5 4 Este 8 Este 0 -- -- 87
2021-02-18 21:00:00 12.2 4 Este 6 Este 0 -- -- 86
2021-02-18 20:00:00 13.6 0 Calma 4 Noroeste 0 -- -- 81
2021-02-18 19:00:00 15.2 0 Calma 10 Noroeste 0 -- -- 72
2021-02-18 18:00:00 -- 5 Noroeste 13 Noroeste 0 -- -- --
2021-02-18 17:00:00 17.6 5 Noroeste 12 Noroeste 0 -- -- 67
2021-02-18 16:00:00 17.8 6 Oeste 15 Noroeste 0 -- -- 69
2021-02-18 15:00:00 16.5 10 Noroeste 19 Noroeste 0 -- -- 72
2021-02-18 14:00:00 16.3 8 Noroeste 15 Noroeste 0 -- -- 74
2021-02-18 13:00:00 15.9 9 Oeste 18 Oeste 0 -- -- 72
2021-02-18 12:00:00 14.1 12 Oeste 17 Oeste 0 -- -- 77
2021-02-18 11:00:00 13.5 8 Noroeste 14 Noroeste 0 -- -- 79
2021-02-18 10:00:00 11.8 2 Norte 9 Este 0 -- -- 75
2021-02-18 09:00:00 9.5 3 Este 13 Este 0 -- -- 78
2021-02-18 08:00:00 7.8 6 Este 17 Este 0 -- -- 84
2021-02-18 07:00:00 8.8 9 Este 14 Este 0 -- -- 86
2021-02-18 06:00:00 7.9 8 Este 13 Este 0 -- -- 88
2021-02-18 05:00:00 8.3 9 Este 13 Este 0 -- -- 86
2021-02-18 04:00:00 9.2 4 Este 7 Este 0 -- -- 88
2021-02-18 03:00:00 9.3 2 Este 9 Sudeste 0 -- -- 87
2021-02-18 02:00:00 10.3 6 Este 10 Sudeste 0 -- -- 88
2021-02-18 01:00:00 10.1 2 Este 10 Este 0 -- -- 89
2021-02-18 00:00:00 11.2 6 Este 12 Este 0 -- -- 87
2021-02-17 23:00:00 12.2 6 Este 10 Este 0 -- -- 85
2021-02-17 22:00:00 13.6 0 Calma 10 Este 0 -- -- 81
2021-02-17 21:00:00 14.3 3 Este 8 Este 0 -- -- 79
2021-02-17 20:00:00 15.3 5 Noroeste 14 Noroeste 0 -- -- 74
2021-02-17 19:00:00 16.9 9 Oeste 15 Oeste 0 -- -- 70
2021-02-17 18:00:00 19.1 12 Oeste 23 Oeste 0 -- -- 63
2021-02-17 17:00:00 -- 14 Oeste 24 Oeste 0 -- -- --
2021-02-17 16:00:00 21.5 15 Noroeste 21 Noroeste 0 -- -- 57
2021-02-17 15:00:00 22.7 6 Norte 17 Nordeste 0 -- -- 47
2021-02-17 14:00:00 22 11 Nordeste 18 Nordeste 0 -- -- 38
2021-02-17 13:00:00 21.8 6 Norte 11 Norte 0 -- -- 37
2021-02-17 12:00:00 19.6 2 Norte 6 Este 0 -- -- 37
2021-02-17 11:00:00 18.1 0 Calma 7 Este 0 -- -- 46
2021-02-17 10:00:00 14.2 7 Este 15 Sudeste 0 -- -- 48
2021-02-17 09:00:00 -- -- -- -- -- -- -- -- --
2021-02-17 08:00:00 9.4 5 Este 13 Este 0 -- -- 61
2021-02-17 07:00:00 9.1 11 Este 16 Este 0 -- -- 64
2021-02-17 06:00:00 10 6 Este 13 Este 0 -- -- 65
2021-02-17 05:00:00 9.8 7 Este 12 Este 0 -- -- 69
2021-02-17 04:00:00 9.5 8 Este 11 Este 0 -- -- 74
2021-02-17 03:00:00 10.6 3 Este 8 Este 0 -- -- 67
2021-02-17 02:00:00 10.8 7 Este 12 Sudeste 0 -- -- 66
2021-02-17 01:00:00 10.5 4 Este 13 Sudeste 0 -- -- 74
2021-02-17 00:00:00 10.4 5 Este 16 Este 0 -- -- 81
2021-02-16 23:00:00 11.2 5 Este 14 Este 0 -- -- 78
2021-02-16 22:00:00 12.8 6 Este 10 Sudeste 0 -- -- 76
2021-02-16 21:00:00 13 0 Calma 8 Noroeste 0 -- -- 74
2021-02-16 20:00:00 14.5 5 Noroeste 18 Noroeste 0 -- -- 66
2021-02-16 19:00:00 16.4 12 Noroeste 16 Noroeste 0 -- -- 62
2021-02-16 18:00:00 19.3 13 Oeste 20 Noroeste 0 -- -- 56
2021-02-16 17:00:00 21.2 13 Noroeste 18 Oeste 0 -- -- 49
2021-02-16 16:00:00 21.8 6 Noroeste 14 Oeste 0 -- -- 45
2021-02-16 15:00:00 21.4 6 Norte 16 Oeste 0 -- -- 41
2021-02-16 14:00:00 21 5 Noroeste 11 Noroeste 0 -- -- 43
2021-02-16 13:00:00 19.6 4 Sudeste 15 Sudeste 0 -- -- 45
2021-02-16 12:00:00 16.5 4 Sudeste 18 Sudeste 0 -- -- 55
2021-02-16 11:00:00 15.2 5 Sudeste 21 Este 0 -- -- 55
2021-02-16 10:00:00 12.9 8 Sudeste 21 Sudeste 0 -- -- 57
2021-02-16 09:00:00 10.6 6 Sudeste 17 Sudeste 0 -- -- 60
2021-02-16 08:00:00 10.1 5 Sudeste 22 Sudeste 0 -- -- 58
2021-02-16 07:00:00 10.3 6 Sudeste 23 Sudeste 0 -- -- 56
2021-02-16 06:00:00 10.4 6 Sudeste 21 Sudeste 0 -- -- 53
2021-02-16 05:00:00 10.3 5 Sudeste 23 Este 0 -- -- 55
2021-02-16 04:00:00 10.5 5 Sudeste 21 Este 0 -- -- 54
2021-02-16 03:00:00 10.8 7 Sudeste 30 Sudeste 0 -- -- 51
2021-02-16 02:00:00 11 11 Sudeste 31 Sudeste 0 -- -- 51
2021-02-16 01:00:00 11.3 12 Sudeste 34 Sudeste 0 -- -- 51
2021-02-16 00:00:00 11.7 13 Sudeste 37 Sudeste 0 -- -- 49
2021-02-15 23:00:00 11.8 10 Sudeste 28 Este 0 -- -- 49
2021-02-15 22:00:00 11.9 12 Sudeste 32 Este 0 -- -- 50
2021-02-15 21:00:00 11.9 10 Sudeste 34 Sudeste 0 -- -- 52
2021-02-15 20:00:00 12.8 11 Sudeste 35 Sudeste 0 -- -- 51
2021-02-15 19:00:00 14.4 6 Sur 23 Sur 0 -- -- 51
2021-02-15 18:00:00 17.7 6 Sur 17 Sudoeste 0 -- -- 48
2021-02-15 17:00:00 18.7 6 Sur 21 Este 0 -- -- 45
2021-02-15 16:00:00 19.2 7 Sur 22 Este 0 -- -- 45
2021-02-15 15:00:00 18.6 7 Sur 26 Este 0 -- -- 46
2021-02-15 14:00:00 17.5 9 Sur 28 Este 0 -- -- 48
2021-02-15 13:00:00 16.5 9 Sudeste 33 Sur 0 -- -- 50
2021-02-15 12:00:00 15 12 Sudeste 31 Sur 0 -- -- 52
2021-02-15 11:00:00 14.4 9 Sur 23 Sur 0 -- -- 52
2021-02-15 10:00:00 12.8 6 Sur 21 Este 0 -- -- 58
2021-02-15 09:00:00 9.9 4 Sudeste 24 Este 0 -- -- 66
2021-02-15 08:00:00 9.1 5 Sudeste 19 Sudeste 0 -- -- 69
2021-02-15 07:00:00 9.2 5 Sur 24 Sur 0 -- -- 70
2021-02-15 06:00:00 9.2 4 Sur 17 Sudeste 0 -- -- 69
2021-02-15 05:00:00 9.3 4 Sur 21 Sudeste 0 -- -- 66
2021-02-15 04:00:00 9.8 5 Sur 18 Sudeste 0 -- -- 61
2021-02-15 03:00:00 9.7 5 Sur 17 Sudoeste 0 -- -- 60
2021-02-15 02:00:00 10 4 Sudeste 14 Este 0 -- -- 60
2021-02-15 01:00:00 10.5 4 Sur 15 Sudoeste 0 -- -- 60
2021-02-15 00:00:00 10.7 5 Sur 18 Sur 0 -- -- 60
2021-02-14 23:00:00 10.8 4 Sudeste 19 Sudeste 0 -- -- 62
2021-02-14 22:00:00 11.5 5 Sudeste 24 Sudeste 0 -- -- 63
2021-02-14 21:00:00 12 8 Sudeste 30 Sudeste 0 -- -- 59
2021-02-14 20:00:00 12.5 12 Sudeste 34 Sudeste 0 -- -- 59
2021-02-14 19:00:00 14.1 9 Sudeste 27 Sudeste 0 -- -- 52
2021-02-14 18:00:00 17 9 Sudeste 26 Este 0 -- -- 45
2021-02-14 17:00:00 19 12 Sudeste 24 Este 0 -- -- 41
2021-02-14 16:00:00 20.6 5 Sur 20 Sudeste 0 -- -- 39
2021-02-14 15:00:00 20.7 5 Sur 19 Sur 0 -- -- 38
2021-02-14 14:00:00 19.9 6 Sur 21 Sudoeste 0 -- -- 37
2021-02-14 13:00:00 19.3 7 Sur 34 Sudeste 0 -- -- 39
2021-02-14 12:00:00 17.5 13 Sudeste 30 Sudeste 0 -- -- 39
2021-02-14 11:00:00 16.9 5 Sudeste 20 Sudeste 0 -- -- 40
2021-02-14 10:00:00 14.9 6 Sudeste 25 Sudeste 0 -- -- 47
2021-02-14 09:00:00 10.7 5 Este 14 Este 0 -- -- 51
2021-02-14 08:00:00 11 8 Este 14 Este 0 -- -- 48
2021-02-14 07:00:00 10.5 5 Este 14 Este 0 -- -- 52
2021-02-14 06:00:00 10.3 7 Este 15 Este 0 -- -- 54
2021-02-14 05:00:00 10 9 Este 14 Sudeste 0 -- -- 58
2021-02-14 04:00:00 10 4 Este 13 Este 0 -- -- 60
2021-02-14 03:00:00 9.9 8 Este 15 Este 0 -- -- 61
2021-02-14 02:00:00 10.7 4 Este 13 Este 0 -- -- 60
2021-02-14 01:00:00 9.7 7 Este 13 Este 0 -- -- 61
2021-02-14 00:00:00 9.7 9 Este 13 Este 0 -- -- 59
2021-02-13 23:00:00 9.3 6 Este 12 Este 0 -- -- 59
2021-02-13 22:00:00 10.9 5 Este 15 Este 0 -- -- 51
2021-02-13 21:00:00 11.7 5 Este 10 Sudeste 0 -- -- 41
2021-02-13 20:00:00 13.6 4 Este 13 Este 0 -- -- 36
2021-02-13 19:00:00 15.1 7 Este 13 Este 0 -- -- 32
2021-02-13 18:00:00 17 6 Este 13 Este 0 -- -- 44
2021-02-13 17:00:00 17.9 7 Nordeste 20 Norte 0 -- -- 47
2021-02-13 16:00:00 18.3 8 Nordeste 14 Norte 0 -- -- 48
2021-02-13 15:00:00 17.6 6 Norte 15 Este 0 -- -- 54
2021-02-13 14:00:00 17.6 7 Nordeste 17 Nordeste 0 -- -- 44
2021-02-13 13:00:00 16.3 7 Nordeste 17 Nordeste 0 -- -- 50
2021-02-13 08:00:00 -- -- -- -- -- -- -- -- --
2021-02-13 07:00:00 6.7 7 Este 13 Este 0 -- -- 91
2021-02-13 06:00:00 7.3 7 Este 15 Este 0 -- -- 92
2021-02-13 05:00:00 7 9 Este 12 Este 0 -- -- 89
2021-02-13 04:00:00 7.9 6 Este 12 Este 0 -- -- 89
2021-02-13 03:00:00 8.2 5 Este 11 Nordeste 0 -- -- 86
2021-02-13 02:00:00 9.2 6 Este 12 Este 0 -- -- 84
2021-02-13 01:00:00 8.3 8 Este 13 Este 0 -- -- 87
2021-02-13 00:00:00 9.5 2 Nordeste 5 Norte 0 -- -- 84
2021-02-12 23:00:00 9.8 0 Calma 10 Este 0 -- -- 84
2021-02-12 22:00:00 10.5 0 Calma 6 Este 0 -- -- 81
2021-02-12 21:00:00 11.2 2 Noroeste 4 Noroeste 0 -- -- 76
2021-02-12 20:00:00 11.9 3 Norte 6 Noroeste 0 -- -- 73
2021-02-12 19:00:00 13.4 2 Noroeste 14 Norte 0 -- -- 68
2021-02-12 18:00:00 15 5 Norte 14 Noroeste 0 -- -- 64
2021-02-12 17:00:00 15.7 9 Noroeste 22 Norte 0 -- -- 63
2021-02-12 16:00:00 16.2 11 Oeste 23 Oeste 0 -- -- 60
2021-02-12 15:00:00 16.1 15 Oeste 26 Oeste 0 -- -- 65
2021-02-12 14:00:00 15.3 13 Oeste 29 Oeste 0.2 -- -- 69
2021-02-12 13:00:00 14.5 15 Oeste 28 Oeste 0 -- -- 78
2021-02-12 12:00:00 13.5 13 Oeste 24 Oeste 0 -- -- 88
2021-02-12 11:00:00 12.5 8 Oeste 19 Noroeste 0 -- -- 100
2021-02-12 10:00:00 11.8 10 Oeste 19 Oeste 1.2 -- -- 100
2021-02-12 09:00:00 11.6 6 Oeste 14 Noroeste 0.6 -- -- 100
2021-02-12 08:00:00 11.5 8 Oeste 18 Noroeste 0.2 -- -- 99
2021-02-12 07:00:00 11.4 8 Oeste 13 Oeste 0.2 -- -- 99
2021-02-12 06:00:00 11.3 5 Oeste 8 Oeste 0 -- -- 99
2021-02-12 05:00:00 11.3 0 Calma 12 Oeste 0 -- -- 99
2021-02-12 04:00:00 11.2 2 Sudoeste 10 Sudoeste 0 -- -- 98
2021-02-12 03:00:00 11.2 6 Sudoeste 14 Sudoeste 0 -- -- 98
2021-02-12 02:00:00 11.1 7 Oeste 14 Oeste 0 -- -- 98
2021-02-12 01:00:00 11 0 Calma 3 Sudoeste 0 -- -- 98
2021-02-12 00:00:00 11.4 2 Oeste 6 Oeste 0 -- -- 98
2021-02-11 23:00:00 11.3 0 Calma 8 Oeste 0 -- -- 97
2021-02-11 22:00:00 11.9 0 Calma 5 Oeste 0 -- -- 96
2021-02-11 21:00:00 12.5 6 Oeste 13 Noroeste 0 -- -- 95
2021-02-11 20:00:00 -- -- -- -- -- -- -- -- --
2021-02-11 19:00:00 13.7 3 Noroeste 12 Noroeste 0 -- -- 88
2021-02-11 18:00:00 14.3 5 Noroeste 9 Noroeste 0 -- -- 90
2021-02-11 17:00:00 14.6 4 Norte 10 Norte 0 -- -- 90
2021-02-11 16:00:00 14.1 5 Noroeste 14 Oeste 0 -- -- 90
2021-02-11 15:00:00 14.7 5 Noroeste 12 Noroeste 0 -- -- 88
2021-02-11 14:00:00 14.4 6 Noroeste 11 Noroeste 0 -- -- 91
2021-02-11 13:00:00 14 4 Norte 11 Sudoeste 0 -- -- 92
2021-02-11 12:00:00 13.7 5 Sudoeste 10 Sudoeste 0 -- -- 99
2021-02-11 11:00:00 12.5 3 Noroeste 6 Oeste 0 -- -- 100
2021-02-11 10:00:00 12 3 Sudoeste 5 Sudoeste 0 -- -- 100
2021-02-11 09:00:00 11.7 0 Calma 4 Sudoeste 0 -- -- 100
2021-02-11 08:00:00 11.7 0 Calma 5 Sudoeste 0.4 -- -- 100
2021-02-11 07:00:00 11.7 4 Sudoeste 6 Sudoeste 0.2 -- -- 100
2021-02-11 06:00:00 11.8 3 Oeste 15 Oeste 0 -- -- 100
2021-02-11 05:00:00 11.9 6 Oeste 15 Noroeste 0.4 -- -- 100
2021-02-11 04:00:00 11.9 6 Oeste 18 Oeste 0 -- -- 100
2021-02-11 03:00:00 11.9 7 Sudoeste 12 Oeste 0 -- -- 100
2021-02-11 02:00:00 11.8 6 Sudoeste 13 Sudoeste 0 -- -- 100
2021-02-11 01:00:00 11.7 9 Oeste 22 Oeste 0.2 -- -- 99
2021-02-11 00:00:00 11.7 12 Sudoeste 28 Sudoeste 0 -- -- 99
2021-02-10 23:00:00 11.8 15 Sudoeste 29 Sudoeste 0 -- -- 97
2021-02-10 22:00:00 11.8 19 Sudoeste 39 Oeste 0 -- -- 100
2021-02-10 21:00:00 11.7 24 Oeste 39 Sudoeste 0.2 -- -- 100
2021-02-10 20:00:00 11.7 21 Sudoeste 35 Sudoeste 0 -- -- 100
2021-02-10 19:00:00 12 25 Sudoeste 51 Sudoeste 0.4 -- -- 100
2021-02-10 18:00:00 12.3 23 Sudoeste 37 Sudoeste 0.2 -- -- 100
2021-02-10 17:00:00 12.5 20 Oeste 40 Oeste 0.8 -- -- 100
2021-02-10 16:00:00 12.5 18 Sudoeste 41 Sudoeste 1.6 -- -- 100
2021-02-10 15:00:00 12.5 22 Oeste 36 Oeste 1.4 -- -- 100
2021-02-10 14:00:00 12.5 23 Oeste 42 Sudoeste 2 -- -- 100
2021-02-10 13:00:00 12.4 26 Oeste 44 Oeste 1 -- -- 100
2021-02-10 12:00:00 12.3 23 Oeste 50 Sudoeste 0.4 -- -- 99
2021-02-10 11:00:00 11.8 32 Sudoeste 58 Sudoeste 0.4 -- -- 99
2021-02-10 10:00:00 11.3 26 Sudoeste 58 Oeste 0.6 -- -- 96
2021-02-10 09:00:00 11.5 26 Oeste 66 Sudoeste 1 -- -- 96
2021-02-10 08:00:00 11.5 35 Oeste 64 Oeste 0.8 -- -- 95
2021-02-10 07:00:00 11.4 33 Sudoeste 60 Oeste 0.2 -- -- 97
2021-02-10 06:00:00 11.2 24 Sudoeste 48 Sudoeste 0 -- -- 93
2021-02-10 05:00:00 10.7 25 Oeste 41 Oeste 0.6 -- -- 96
2021-02-10 04:00:00 10.5 18 Oeste 47 Sudoeste 0.4 -- -- 96
2021-02-10 03:00:00 11 27 Oeste 50 Sudoeste 0.2 -- -- 90
2021-02-10 02:00:00 10.5 24 Sudoeste 58 Oeste 0 -- -- 93
2021-02-10 01:00:00 11 35 Sudoeste 57 Oeste 0 -- -- 90
2021-02-10 00:00:00 11.5 30 Sudoeste 58 Sudoeste 0 -- -- 90
2021-02-09 23:00:00 11.1 33 Oeste 70 Sudoeste 2.4 -- -- 92
2021-02-09 22:00:00 11.4 33 Sudoeste 63 Sudoeste 0 -- -- 95
2021-02-09 21:00:00 11.3 27 Sudoeste 61 Sudoeste 0 -- -- 94
2021-02-09 20:00:00 11.4 37 Sudoeste 61 Sudoeste 0.2 -- -- 96
2021-02-09 19:00:00 11.1 33 Sudoeste 54 Sudoeste 1.4 -- -- 98
2021-02-09 18:00:00 11.1 32 Sudoeste 57 Sudoeste 0.4 -- -- 97
2021-02-09 17:00:00 11.4 33 Sudoeste 60 Sudoeste 1.4 -- -- 96
2021-02-09 16:00:00 11.8 33 Sudoeste 72 Sudoeste 0.4 -- -- 93
2021-02-09 15:00:00 12.9 41 Sudoeste 65 Sudoeste 0 -- -- 83
2021-02-09 14:00:00 13.7 36 Sudoeste 62 Sudoeste 0 -- -- 78
2021-02-09 13:00:00 -- -- -- -- -- -- -- -- --
2021-02-09 12:00:00 12.4 31 Sudoeste 46 Sudoeste 0.2 -- -- 81
2021-02-09 11:00:00 11.2 26 Sudoeste 44 Sudoeste 0 -- -- 82
2021-02-09 10:00:00 11.4 29 Sudoeste 50 Sudoeste 0 -- -- 75
2021-02-09 09:00:00 9.8 14 Sudoeste 28 Sudoeste 0 -- -- 92
2021-02-09 08:00:00 9.4 20 Sudoeste 40 Sudoeste 0 -- -- 95
2021-02-09 07:00:00 10 26 Sudoeste 45 Sudoeste 0 -- -- 85
2021-02-09 06:00:00 9.6 29 Sudoeste 47 Sudoeste 0 -- -- 83
2021-02-09 05:00:00 9.6 25 Sudoeste 44 Sudoeste 0 -- -- 77
2021-02-09 04:00:00 9.4 17 Sudoeste 33 Sudoeste 0 -- -- 91
2021-02-09 03:00:00 9.5 19 Sudoeste 35 Sudoeste 0 -- -- 94
2021-02-09 02:00:00 9.3 19 Sudoeste 30 Sudoeste 0 -- -- 91
2021-02-09 01:00:00 9.1 10 Sudoeste 27 Sur 0 -- -- 93
2021-02-09 00:00:00 9.5 22 Sudoeste 35 Oeste 0 -- -- 93
2021-02-08 23:00:00 9.4 22 Oeste 37 Sudoeste 0.2 -- -- 96
2021-02-08 22:00:00 9.8 15 Oeste 36 Oeste 0.4 -- -- 91
2021-02-08 21:00:00 10.3 22 Oeste 43 Sudoeste 0 -- -- 87
2021-02-08 20:00:00 10.5 26 Sudoeste 44 Sudoeste 0 -- -- 85
2021-02-08 19:00:00 10.6 30 Sudoeste 48 Sudoeste 0 -- -- 82
2021-02-08 18:00:00 11.3 27 Sudoeste 46 Sudoeste 0 -- -- 78
2021-02-08 17:00:00 13.1 23 Sudoeste 41 Sudoeste 0 -- -- 73
2021-02-08 16:00:00 12.6 26 Oeste 46 Sudoeste 0 -- -- 69
2021-02-08 15:00:00 12.6 19 Oeste 46 Oeste 0 -- -- 72
2021-02-08 14:00:00 12.7 27 Oeste 45 Oeste 0 -- -- 66
2021-02-08 13:00:00 11.7 22 Oeste 41 Oeste 0 -- -- 76
2021-02-08 12:00:00 10.2 21 Oeste 39 Sudoeste 0 -- -- 87
2021-02-08 11:00:00 9.4 18 Oeste 38 Oeste 0 -- -- 99
2021-02-08 10:00:00 8.8 19 Oeste 32 Oeste 0 -- -- 100
2021-02-08 09:00:00 8.4 11 Oeste 31 Oeste 0 -- -- 100
2021-02-08 08:00:00 8.2 18 Oeste 62 Sudoeste 7 -- -- 99
2021-02-08 07:00:00 11 39 Sudoeste 73 Sudoeste 4.8 -- -- 96
2021-02-08 06:00:00 10.7 36 Sudoeste 52 Sudoeste 1.6 -- -- 95
2021-02-08 05:00:00 10.2 25 Sudoeste 40 Sudoeste 0 -- -- 93
2021-02-08 04:00:00 10 19 Sudoeste 46 Sudoeste 0 -- -- 92
2021-02-08 03:00:00 9.7 27 Sudoeste 48 Sudoeste 0 -- -- 94
2021-02-08 02:00:00 9.2 29 Sudoeste 43 Sudoeste 0.2 -- -- 98
2021-02-08 01:00:00 8.6 17 Sudoeste 35 Sudoeste 0.2 -- -- 98
2021-02-08 00:00:00 8.3 19 Sudoeste 39 Sudoeste 0 -- -- 98
2021-02-07 23:00:00 8.1 21 Sudoeste 37 Sudoeste 0 -- -- 97
2021-02-07 22:00:00 7.9 24 Sudoeste 39 Oeste 0 -- -- 96
2021-02-07 21:00:00 8 21 Sudoeste 31 Sudoeste 0 -- -- 89
2021-02-07 20:00:00 7.7 19 Sudoeste 30 Sudoeste 0 -- -- 86
2021-02-07 19:00:00 7.8 19 Sudoeste 35 Sudoeste 0 -- -- 82
2021-02-07 18:00:00 7.8 23 Sudoeste 38 Oeste 0 -- -- 80
2021-02-07 17:00:00 7.9 18 Oeste 52 Oeste 0 -- -- 76
2021-02-07 16:00:00 8.4 28 Sudoeste 49 Sudoeste 0 -- -- 81
2021-02-07 15:00:00 9.5 25 Sudoeste 38 Sudoeste 0 -- -- 79
2021-02-07 14:00:00 8.8 21 Sudoeste 41 Oeste 0 -- -- 87
2021-02-07 13:00:00 7.9 19 Oeste 30 Oeste 0 -- -- 100
2021-02-07 12:00:00 7.1 20 Sudoeste 31 Sudoeste 0 -- -- 100
2021-02-07 11:00:00 7.4 11 Sudoeste 22 Oeste 0 -- -- 100
2021-02-07 10:00:00 7.3 8 Oeste 22 Noroeste 0.2 -- -- 100
2021-02-07 09:00:00 7.2 9 Oeste 19 Oeste 0 -- -- 99
2021-02-07 08:00:00 7.2 12 Oeste 22 Oeste 0 -- -- 100
2021-02-07 07:00:00 7.1 9 Oeste 15 Oeste 0 -- -- 99
2021-02-07 06:00:00 7.2 6 Oeste 14 Sudoeste 0 -- -- 99
2021-02-07 05:00:00 7.1 9 Sudoeste 14 Oeste 0 -- -- 99
2021-02-07 04:00:00 7 9 Sudoeste 19 Sudoeste 0 -- -- 99
2021-02-07 03:00:00 7 11 Sudoeste 19 Sudoeste 0 -- -- 98
2021-02-07 02:00:00 6.9 13 Sudoeste 24 Sudoeste 0.2 -- -- 98
2021-02-07 01:00:00 6.9 15 Sudoeste 24 Sudoeste 0 -- -- 97
2021-02-07 00:00:00 7.3 11 Sudoeste 17 Sudoeste 0 -- -- 97
2021-02-06 23:00:00 7.4 6 Sudoeste 19 Oeste 2 -- -- 97
2021-02-06 22:00:00 8 7 Sudoeste 25 Sudoeste 0.2 -- -- 95
2021-02-06 21:00:00 8.2 11 Sudoeste 23 Sudoeste 0 -- -- 94
2021-02-06 20:00:00 8.3 11 Sudoeste 28 Sudoeste 0.6 -- -- 95
2021-02-06 19:00:00 8.7 18 Sudoeste 30 Sudoeste 0.4 -- -- 94
2021-02-06 18:00:00 9.5 20 Sudoeste 35 Oeste 0 -- -- 86
2021-02-06 17:00:00 10 20 Sudoeste 39 Oeste 0 -- -- 86
2021-02-06 16:00:00 9.9 23 Sudoeste 41 Sudoeste 0.6 -- -- 85
2021-02-06 15:00:00 10.6 23 Sudoeste 40 Sudoeste 0 -- -- 86
2021-02-06 14:00:00 9.9 14 Sudoeste 34 Sudoeste 1 -- -- 91
2021-02-06 13:00:00 10.6 24 Sudoeste 33 Oeste 0 -- -- 82
2021-02-06 12:00:00 10.1 20 Sudoeste 39 Sudoeste 0 -- -- 86
2021-02-06 11:00:00 9.4 19 Sudoeste 37 Sudoeste 0 -- -- 90
2021-02-06 10:00:00 9.3 23 Sudoeste 34 Sudoeste 0.2 -- -- 89
2021-02-06 09:00:00 8.8 18 Sudoeste 36 Sudoeste 0 -- -- 91
2021-02-06 08:00:00 8.5 19 Sudoeste 33 Sudoeste 0 -- -- 87
2021-02-06 07:00:00 7.9 18 Sudoeste 38 Sudoeste 0 -- -- 91
2021-02-06 06:00:00 7.8 26 Sudoeste 35 Sudoeste 0 -- -- 96
2021-02-06 05:00:00 8.1 24 Sudoeste 39 Oeste 0 -- -- 96
2021-02-06 04:00:00 8.1 28 Sudoeste 43 Sudoeste 0.8 -- -- 96
2021-02-06 03:00:00 8.8 8 Sudoeste 19 Sudoeste 0.8 -- -- 93
2021-02-06 02:00:00 9.4 13 Sudoeste 25 Sudoeste 0 -- -- 86
2021-02-06 01:00:00 9.5 3 Sudeste 36 Sur 0 -- -- 88
2021-02-06 00:00:00 9.5 9 Sudeste 28 Sudeste 0.4 -- -- 85
2021-02-05 23:00:00 9.3 9 Sur 28 Sudoeste 0.2 -- -- 87
2021-02-05 22:00:00 9.5 4 Sudoeste 28 Sudoeste 1 -- -- 88
2021-02-05 21:00:00 10.7 3 Este 14 Oeste 0 -- -- 77
2021-02-05 20:00:00 10.7 2 Oeste 16 Sudoeste 0 -- -- 77
2021-02-05 19:00:00 11.1 12 Sudoeste 38 Sudoeste 0 -- -- 72
2021-02-05 18:00:00 12.2 23 Sudoeste 33 Sudoeste 0 -- -- 68
2021-02-05 17:00:00 12.7 12 Sudoeste 27 Sudoeste 0 -- -- 69
2021-02-05 16:00:00 12.4 8 Sudoeste 14 Sudoeste 0 -- -- 74
2021-02-05 15:00:00 12.2 8 Sudoeste 26 Oeste 0 -- -- 74
2021-02-05 14:00:00 13.8 17 Oeste 26 Oeste 0 -- -- 78
2021-02-05 13:00:00 15.6 4 Sur 14 Sudoeste 0 -- -- 69
2021-02-05 12:00:00 13.7 3 Sur 8 Sudoeste 0 -- -- 78
2021-02-05 11:00:00 12.4 2 Sur 8 Sudoeste 0 -- -- 84
2021-02-05 10:00:00 10.8 2 Sudoeste 6 Sudoeste 0 -- -- 94
2021-02-05 09:00:00 9.3 0 Calma 5 Sudoeste 0 -- -- 96
2021-02-05 08:00:00 8.6 0 Calma 10 Sudoeste 0 -- -- 94
2021-02-05 07:00:00 9.6 6 Oeste 13 Oeste 0 -- -- 93
2021-02-05 06:00:00 10.1 3 Noroeste 22 Sudoeste 0 -- -- 87
2021-02-05 05:00:00 11.6 12 Sudoeste 24 Oeste 0 -- -- 67
2021-02-05 04:00:00 13.2 9 Sudeste 14 Este 0 -- -- 57
2021-02-05 03:00:00 13.1 5 Este 13 Este 0 -- -- 56
2021-02-05 02:00:00 12.9 0 Calma 6 Este 0 -- -- 59
2021-02-05 01:00:00 13.2 2 Este 13 Este 0 -- -- 59
2021-02-05 00:00:00 13.5 5 Sudeste 12 Este 0 -- -- 57
2021-02-04 23:00:00 14 10 Este 20 Este 0 -- -- 54
2021-02-04 22:00:00 12.6 4 Este 9 Nordeste 0 -- -- 70
2021-02-04 21:00:00 12.6 5 Este 10 Nordeste 0 -- -- 86
2021-02-04 20:00:00 12.9 4 Este 9 Nordeste 0 -- -- 86
2021-02-04 19:00:00 13.3 0 Calma 5 Noroeste 0 -- -- 87
2021-02-04 18:00:00 14.1 2 Nordeste 14 Noroeste 0 -- -- 84
2021-02-04 17:00:00 14.8 9 Noroeste 24 Noroeste 0 -- -- 80
2021-02-04 16:00:00 16 6 Norte 15 Noroeste 0 -- -- 76
2021-02-04 15:00:00 15.5 10 Norte 18 Norte 0 -- -- 76
2021-02-04 14:00:00 15 9 Norte 14 Norte 0 -- -- 74
2021-02-04 13:00:00 14.3 11 Norte 21 Noroeste 0 -- -- 75
2021-02-04 12:00:00 14.2 7 Sudoeste 30 Sudoeste 0 -- -- 71
2021-02-04 11:00:00 13.5 9 Sur 21 Sur 0 -- -- 74
2021-02-04 10:00:00 10.4 5 Sudeste 13 Nordeste 0 -- -- 86
2021-02-04 09:00:00 8.9 3 Este 9 Este 0 -- -- 91
2021-02-04 08:00:00 -- -- -- -- -- -- -- -- --
2021-02-04 07:00:00 8.1 0 Calma 12 Sudeste 0 -- -- 95
2021-02-04 06:00:00 8.8 5 Sudeste 12 Este 0 -- -- 95
2021-02-04 05:00:00 9.4 3 Sudeste 9 Este 0 -- -- 96
2021-02-04 04:00:00 10 0 Calma 5 Noroeste 0 -- -- 97
2021-02-04 03:00:00 9.7 4 Nordeste 5 Nordeste 0 -- -- 96
2021-02-04 02:00:00 10.1 0 Calma 4 Oeste 0 -- -- 95
2021-02-04 01:00:00 10.6 0 Calma 3 Sur 0 -- -- 95
2021-02-04 00:00:00 10.9 0 Calma 6 Sudoeste 0 -- -- 95
2021-02-03 23:00:00 11.3 2 Sudoeste 9 Oeste 0 -- -- 95
2021-02-03 22:00:00 11.6 2 Oeste 7 Noroeste 0 -- -- 93
2021-02-03 21:00:00 11.6 6 Oeste 10 Oeste 0 -- -- 91
2021-02-03 20:00:00 11.7 5 Oeste 9 Oeste 0 -- -- 87
2021-02-03 19:00:00 12.4 5 Noroeste 12 Noroeste 0 -- -- 83
2021-02-03 18:00:00 13.1 3 Noroeste 13 Noroeste 0 -- -- 80
2021-02-03 17:00:00 13.9 7 Noroeste 13 Oeste 0 -- -- 76
2021-02-03 16:00:00 14.8 5 Norte 11 Oeste 0 -- -- 74
2021-02-03 15:00:00 15.3 5 Noroeste 12 Noroeste 0 -- -- 72
2021-02-03 14:00:00 14.5 4 Oeste 12 Oeste 0 -- -- 73
2021-02-03 13:00:00 13.8 5 Norte 12 Noroeste 0 -- -- 78
2021-02-03 12:00:00 12.4 4 Oeste 9 Sudoeste 0 -- -- 78
2021-02-03 11:00:00 11.1 0 Calma 6 Sudeste 0 -- -- 88
2021-02-03 10:00:00 9.8 2 Sudeste 10 Sudeste 0 -- -- 92
2021-02-03 09:00:00 9.5 5 Este 7 Este 0 -- -- 92
2021-02-03 08:00:00 9.7 0 Calma 4 Este 0 -- -- 91
2021-02-03 07:00:00 9.8 0 Calma 7 Sudoeste 0 -- -- 93
2021-02-03 06:00:00 9.8 0 Calma 6 Este 0 -- -- 92
2021-02-03 05:00:00 9.9 3 Este 5 Este 0 -- -- 93
2021-02-03 04:00:00 10.2 0 Calma 3 Sudeste 0 -- -- 95
2021-02-03 03:00:00 10.2 0 Calma 9 Oeste 0 -- -- 96
2021-02-03 02:00:00 10.2 0 Calma 6 Noroeste 0 -- -- 96
2021-02-03 01:00:00 10 2 Oeste 5 Este 0 -- -- 95
2021-02-03 00:00:00 9.9 4 Este 10 Sudeste 0 -- -- 95
2021-02-02 23:00:00 10.1 0 Calma 6 Norte 0 -- -- 94
2021-02-02 22:00:00 10.1 5 Nordeste 8 Sudeste 0 -- -- 93
2021-02-02 21:00:00 -- -- -- -- -- -- -- -- --
2021-02-02 20:00:00 11.7 0 Calma 14 Norte 0 -- -- 87
2021-02-02 19:00:00 13 8 Noroeste 17 Oeste 0 -- -- 83
2021-02-02 18:00:00 16.2 10 Noroeste 16 Noroeste 0 -- -- 71
2021-02-02 17:00:00 17.9 8 Oeste 13 Noroeste 0 -- -- 66
2021-02-02 16:00:00 -- 6 Oeste 10 Noroeste 0 -- -- --
2021-02-02 15:00:00 16.7 5 Noroeste 12 Noroeste 0 -- -- 68
2021-02-02 14:00:00 15.1 5 Oeste 13 Oeste 0 -- -- 73
2021-02-02 13:00:00 13.7 5 Oeste 13 Oeste 0 -- -- 79
2021-02-02 12:00:00 -- 4 Oeste 10 Sudoeste 0 -- -- --
2021-02-02 11:00:00 11.2 3 Noroeste 8 Norte 0 -- -- 84
2021-02-02 10:00:00 10.8 0 Calma 7 Nordeste 0 -- -- 87
2021-02-02 09:00:00 10.1 3 Este 5 Nordeste 0 -- -- 90
2021-02-02 08:00:00 10.1 0 Calma 5 Sudeste 0 -- -- 90
2021-02-02 07:00:00 10 0 Calma 5 Noroeste 0 -- -- 91
2021-02-02 06:00:00 9.9 2 Noroeste 7 Noroeste 0 -- -- 94
2021-02-02 05:00:00 9.9 0 Calma 3 Oeste 0 -- -- 96
2021-02-02 04:00:00 9.7 0 Calma 4 Noroeste 0 -- -- 97
2021-02-02 03:00:00 9.4 0 Calma 6 Este 0 -- -- 97
2021-02-02 02:00:00 8.8 3 Este 6 Este 0 -- -- 97
2021-02-02 01:00:00 8.2 4 Este 5 Este 0 -- -- 97
2021-02-02 00:00:00 8.6 0 Calma 4 Nordeste 0 -- -- 96
2021-02-01 23:00:00 8.9 0 Calma 5 Sudoeste 0 -- -- 96
2021-02-01 22:00:00 9.1 0 Calma 6 Sudoeste 0 -- -- 95
2021-02-01 21:00:00 9.6 4 Este 8 Este 0 -- -- 94
2021-02-01 20:00:00 9.8 5 Norte 15 Noroeste 0 -- -- 92
2021-02-01 19:00:00 11.2 7 Noroeste 15 Sudoeste 0 -- -- 87
2021-02-01 18:00:00 13.2 10 Oeste 28 Oeste 0 -- -- 84
2021-02-01 17:00:00 13.4 17 Oeste 25 Oeste 0 -- -- 83
2021-02-01 16:00:00 -- 10 Oeste 26 Oeste 0.2 -- -- --
2021-02-01 15:00:00 14.1 16 Oeste 30 Oeste 0 -- -- 80
2021-02-01 14:00:00 13.5 14 Oeste 29 Oeste 0 -- -- 83
2021-02-01 13:00:00 13.2 15 Oeste 27 Oeste 0 -- -- 85
2021-02-01 12:00:00 12.9 15 Oeste 24 Oeste 0 -- -- 90
2021-02-01 11:00:00 11.6 14 Oeste 27 Oeste 0 -- -- 99
2021-02-01 10:00:00 11.6 13 Oeste 24 Oeste 0 -- -- 99
2021-02-01 09:00:00 11.3 14 Oeste 26 Oeste 0 -- -- 99
2021-02-01 08:00:00 11.1 11 Noroeste 26 Noroeste 0 -- -- 99
2021-02-01 07:00:00 11.7 15 Oeste 31 Oeste 0 -- -- 99
2021-02-01 06:00:00 11.9 12 Oeste 28 Oeste 0 -- -- 99
2021-02-01 05:00:00 12 16 Oeste 36 Oeste 0.2 -- -- 99
2021-02-01 04:00:00 12.4 18 Oeste 40 Oeste 0.4 -- -- 99
2021-02-01 03:00:00 12.5 19 Oeste 35 Oeste 0.6 -- -- 98
2021-02-01 02:00:00 12.3 17 Oeste 32 Oeste 0.4 -- -- 98
2021-02-01 01:00:00 11.8 13 Oeste 33 Oeste 0.6 -- -- 98
2021-02-01 00:00:00 11.9 16 Oeste 36 Oeste 0.6 -- -- 97
2021-01-31 23:00:00 11.8 16 Sudoeste 33 Oeste 0 -- -- 97
2021-01-31 22:00:00 11.5 21 Oeste 38 Oeste 0 -- -- 97
2021-01-31 21:00:00 11.3 22 Oeste 37 Oeste 0 -- -- 94
2021-01-31 20:00:00 11.4 22 Sudoeste 36 Sudoeste 0 -- -- 89
2021-01-31 19:00:00 11.6 20 Sudoeste 36 Oeste 0 -- -- 86
2021-01-31 18:00:00 12.1 25 Sudoeste 44 Sudoeste 0 -- -- 84
2021-01-31 17:00:00 13.2 20 Oeste 36 Oeste 0 -- -- 80
2021-01-31 16:00:00 13.6 17 Oeste 37 Oeste 0 -- -- 76
2021-01-31 15:00:00 13.5 18 Oeste 40 Oeste 0 -- -- 78
2021-01-31 14:00:00 12.7 22 Oeste 37 Noroeste 0 -- -- 82
2021-01-31 13:00:00 11.2 21 Oeste 33 Oeste 0 -- -- 90
2021-01-31 12:00:00 10.5 14 Oeste 26 Oeste 0 -- -- 91
2021-01-31 11:00:00 10.2 17 Oeste 31 Oeste 0 -- -- 91
2021-01-31 10:00:00 9.3 13 Oeste 27 Oeste 0 -- -- 94
2021-01-31 09:00:00 8.9 16 Oeste 31 Oeste 0 -- -- 95
2021-01-31 08:00:00 8.4 14 Oeste 28 Oeste 0 -- -- 96
2021-01-31 07:00:00 8.2 16 Oeste 27 Noroeste 0 -- -- 95
2021-01-31 06:00:00 8.1 17 Oeste 33 Oeste 0 -- -- 94
2021-01-31 05:00:00 8.1 17 Oeste 30 Oeste 0 -- -- 94
2021-01-31 04:00:00 8.2 17 Oeste 33 Oeste 0 -- -- 94
2021-01-31 03:00:00 8.3 21 Oeste 40 Oeste 0 -- -- 94
2021-01-31 02:00:00 8.6 25 Oeste 39 Oeste 0 -- -- 94
2021-01-31 01:00:00 8.5 15 Oeste 31 Noroeste 0 -- -- 90
2021-01-31 00:00:00 8.6 15 Oeste 29 Oeste 0 -- -- 88
2021-01-30 23:00:00 9 17 Oeste 32 Oeste 0 -- -- 88
2021-01-30 22:00:00 9.7 22 Oeste 38 Oeste 0 -- -- 88
2021-01-30 21:00:00 10.3 19 Oeste 34 Oeste 0 -- -- 88
2021-01-30 20:00:00 10.9 20 Oeste 40 Noroeste 0 -- -- 86
2021-01-30 19:00:00 11.8 19 Oeste 37 Oeste 0 -- -- 83
2021-01-30 18:00:00 12.3 21 Oeste 40 Sudoeste 0 -- -- 77
2021-01-30 17:00:00 13.7 22 Oeste 37 Oeste 0 -- -- 77
2021-01-30 16:00:00 12.9 22 Oeste 39 Oeste 0 -- -- 84
2021-01-30 15:00:00 12.6 21 Oeste 45 Noroeste 1 -- -- 96
2021-01-30 14:00:00 13.2 22 Oeste 43 Oeste 0.2 -- -- 97
2021-01-30 13:00:00 12.6 22 Oeste 48 Oeste 0.6 -- -- 99
2021-01-30 12:00:00 11.9 19 Sudoeste 36 Sudoeste 0 -- -- 99
2021-01-30 11:00:00 11.4 22 Sudoeste 35 Sudoeste 0 -- -- 99
2021-01-30 10:00:00 11.2 19 Sudoeste 33 Oeste 0 -- -- 99
2021-01-30 09:00:00 10.5 12 Sudoeste 22 Sudoeste 0 -- -- 99
2021-01-30 08:00:00 10.2 14 Sudoeste 29 Oeste 0.2 -- -- 98
2021-01-30 07:00:00 10.2 22 Oeste 42 Oeste 0 -- -- 97
2021-01-30 06:00:00 10.2 16 Sudoeste 26 Sudoeste 0 -- -- 96
2021-01-30 05:00:00 10.1 8 Sudoeste 17 Oeste 0 -- -- 96
2021-01-30 04:00:00 10.1 6 Sudoeste 14 Oeste 0 -- -- 95
2021-01-30 03:00:00 10.1 9 Oeste 17 Oeste 0 -- -- 97
2021-01-30 02:00:00 -- -- -- -- -- -- -- -- --
2021-01-30 01:00:00 10.5 4 Sudoeste 14 Sudoeste 0 -- -- 98
2021-01-30 00:00:00 10.6 0 Calma 12 Oeste 0 -- -- 98